sensor_id;sensor_type;location;lat;lon;timestamp;pressure;altitude;pressure_sealevel;temperature;humidity
19624;BME280;9959;49.798;9.928;2024-02-14T00:00:40;100078.88;;;4.06;100.00
19624;BME280;9959;49.798;9.928;2024-02-14T00:03:07;100074.66;;;4.29;100.00
19624;BME280;9959;49.798;9.928;2024-02-14T00:05:34;100077.28;;;4.21;100.00
19624;BME280;9959;49.798;9.928;2024-02-14T00:08:01;100077.06;;;4.15;100.00
19624;BME280;9959;49.798;9.928;2024-02-14T00:10:30;100072.66;;;4.31;99.97
19624;BME280;9959;49.798;9.928;2024-02-14T00:12:56;100081.97;;;4.27;100.00
19624;BME280;9959;49.798;9.928;2024-02-14T00:15:23;100075.81;;;4.27;99.87
19624;BME280;9959;49.798;9.928;2024-02-14T00:17:52;100078.31;;;4.28;99.79
19624;BME280;9959;49.798;9.928;2024-02-14T00:20:20;100076.28;;;4.22;99.79
19624;BME280;9959;49.798;9.928;2024-02-14T00:22:46;100076.31;;;4.30;99.88
19624;BME280;9959;49.798;9.928;2024-02-14T00:25:13;100071.31;;;4.27;99.46
19624;BME280;9959;49.798;9.928;2024-02-14T00:27:45;100070.94;;;4.22;99.19
19624;BME280;9959;49.798;9.928;2024-02-14T00:30:13;100071.63;;;4.24;98.89
19624;BME280;9959;49.798;9.928;2024-02-14T00:32:40;100071.22;;;4.11;99.53
19624;BME280;9959;49.798;9.928;2024-02-14T00:35:07;100066.63;;;4.21;98.86
19624;BME280;9959;49.798;9.928;2024-02-14T00:37:35;100075.22;;;4.07;99.02
19624;BME280;9959;49.798;9.928;2024-02-14T00:40:02;100075.84;;;4.01;100.00
19624;BME280;9959;49.798;9.928;2024-02-14T00:42:29;100078.78;;;3.90;100.00
19624;BME280;9959;49.798;9.928;2024-02-14T00:44:56;100071.69;;;3.98;100.00
19624;BME280;9959;49.798;9.928;2024-02-14T00:47:23;100072.63;;;3.89;100.00
19624;BME280;9959;49.798;9.928;2024-02-14T00:49:50;100063.09;;;3.87;100.00
19624;BME280;9959;49.798;9.928;2024-02-14T00:52:17;100068.13;;;3.90;100.00
19624;BME280;9959;49.798;9.928;2024-02-14T00:54:43;100070.00;;;3.97;100.00
19624;BME280;9959;49.798;9.928;2024-02-14T00:57:10;100067.88;;;4.01;100.00
19624;BME280;9959;49.798;9.928;2024-02-14T00:59:39;100070.22;;;4.04;100.00
19624;BME280;9959;49.798;9.928;2024-02-14T01:02:06;100064.91;;;4.12;100.00
19624;BME280;9959;49.798;9.928;2024-02-14T01:04:33;100057.63;;;4.22;99.78
19624;BME280;9959;49.798;9.928;2024-02-14T01:07:05;100072.63;;;4.23;99.62
19624;BME280;9959;49.798;9.928;2024-02-14T01:09:32;100071.28;;;4.19;99.34
19624;BME280;9959;49.798;9.928;2024-02-14T01:11:59;100065.97;;;4.27;98.76
19624;BME280;9959;49.798;9.928;2024-02-14T01:14:26;100071.81;;;4.31;98.00
19624;BME280;9959;49.798;9.928;2024-02-14T01:16:53;100071.34;;;4.43;98.18
19624;BME280;9959;49.798;9.928;2024-02-14T01:19:20;100065.50;;;4.40;96.62
19624;BME280;9959;49.798;9.928;2024-02-14T01:21:47;100072.09;;;4.62;96.39
19624;BME280;9959;49.798;9.928;2024-02-14T01:24:15;100067.25;;;4.57;96.11
19624;BME280;9959;49.798;9.928;2024-02-14T01:26:42;100068.44;;;4.63;93.54
19624;BME280;9959;49.798;9.928;2024-02-14T01:29:09;100071.56;;;4.58;93.52
19624;BME280;9959;49.798;9.928;2024-02-14T01:31:36;100070.06;;;4.56;94.94
19624;BME280;9959;49.798;9.928;2024-02-14T01:34:03;100063.09;;;4.63;94.28
19624;BME280;9959;49.798;9.928;2024-02-14T01:36:31;100066.25;;;4.66;94.71
19624;BME280;9959;49.798;9.928;2024-02-14T01:38:58;100057.06;;;4.69;93.95
19624;BME280;9959;49.798;9.928;2024-02-14T01:41:25;100063.09;;;4.63;94.03
19624;BME280;9959;49.798;9.928;2024-02-14T01:43:52;100064.56;;;4.65;93.86
19624;BME280;9959;49.798;9.928;2024-02-14T01:46:19;100058.06;;;4.68;94.58
19624;BME280;9959;49.798;9.928;2024-02-14T01:48:46;100055.41;;;4.68;93.41
19624;BME280;9959;49.798;9.928;2024-02-14T01:51:14;100058.25;;;4.74;93.18
19624;BME280;9959;49.798;9.928;2024-02-14T01:53:44;100053.91;;;4.73;93.47
19624;BME280;9959;49.798;9.928;2024-02-14T01:56:12;100045.13;;;4.89;93.08
19624;BME280;9959;49.798;9.928;2024-02-14T01:58:39;100045.28;;;4.88;92.63
19624;BME280;9959;49.798;9.928;2024-02-14T02:01:06;100048.41;;;4.75;92.84
19624;BME280;9959;49.798;9.928;2024-02-14T02:03:33;100050.75;;;4.78;92.97
19624;BME280;9959;49.798;9.928;2024-02-14T02:06:06;100043.44;;;5.04;91.88
19624;BME280;9959;49.798;9.928;2024-02-14T02:08:33;100045.13;;;5.05;91.58
19624;BME280;9959;49.798;9.928;2024-02-14T02:11:01;100042.28;;;5.07;90.36
19624;BME280;9959;49.798;9.928;2024-02-14T02:13:28;100037.59;;;5.01;90.47
19624;BME280;9959;49.798;9.928;2024-02-14T02:15:55;100035.09;;;4.99;89.38
19624;BME280;9959;49.798;9.928;2024-02-14T02:18:22;100031.94;;;5.12;89.79
19624;BME280;9959;49.798;9.928;2024-02-14T02:20:49;100029.44;;;5.19;88.93
19624;BME280;9959;49.798;9.928;2024-02-14T02:23:16;100033.09;;;5.18;88.39
19624;BME280;9959;49.798;9.928;2024-02-14T02:25:43;100031.44;;;5.17;88.83
19624;BME280;9959;49.798;9.928;2024-02-14T02:28:10;100021.91;;;5.22;88.99
19624;BME280;9959;49.798;9.928;2024-02-14T02:30:37;100020.38;;;5.28;88.13
19624;BME280;9959;49.798;9.928;2024-02-14T02:33:05;100023.41;;;5.25;87.78
19624;BME280;9959;49.798;9.928;2024-02-14T02:35:34;100022.41;;;5.26;87.26
19624;BME280;9959;49.798;9.928;2024-02-14T02:38:01;100022.06;;;5.29;87.86
19624;BME280;9959;49.798;9.928;2024-02-14T02:40:28;100012.03;;;5.31;88.05
19624;BME280;9959;49.798;9.928;2024-02-14T02:42:55;100019.75;;;5.18;88.31
19624;BME280;9959;49.798;9.928;2024-02-14T02:45:22;100014.72;;;5.23;89.01
19624;BME280;9959;49.798;9.928;2024-02-14T02:47:49;100014.56;;;5.32;89.57
19624;BME280;9959;49.798;9.928;2024-02-14T02:50:18;100012.03;;;5.31;89.52
19624;BME280;9959;49.798;9.928;2024-02-14T02:52:47;100013.88;;;5.30;89.27
19624;BME280;9959;49.798;9.928;2024-02-14T02:55:14;100010.72;;;5.35;87.36
19624;BME280;9959;49.798;9.928;2024-02-14T02:57:44;100012.88;;;5.31;87.86
19624;BME280;9959;49.798;9.928;2024-02-14T03:00:13;100018.38;;;5.38;85.75
19624;BME280;9959;49.798;9.928;2024-02-14T03:02:40;100017.84;;;5.51;85.17
19624;BME280;9959;49.798;9.928;2024-02-14T03:05:12;100012.16;;;5.54;85.40
19624;BME280;9959;49.798;9.928;2024-02-14T03:07:46;100011.66;;;5.50;85.22
19624;BME280;9959;49.798;9.928;2024-02-14T03:10:15;100011.00;;;5.48;85.33
19624;BME280;9959;49.798;9.928;2024-02-14T03:12:46;100009.38;;;5.39;84.64
19624;BME280;9959;49.798;9.928;2024-02-14T03:15:14;100003.38;;;5.29;84.45
19624;BME280;9959;49.798;9.928;2024-02-14T03:17:41;99999.69;;;5.46;84.29
19624;BME280;9959;49.798;9.928;2024-02-14T03:20:12;100004.66;;;5.49;84.18
19624;BME280;9959;49.798;9.928;2024-02-14T03:22:44;100001.81;;;5.51;83.65
19624;BME280;9959;49.798;9.928;2024-02-14T03:25:21;100001.03;;;5.34;83.79
19624;BME280;9959;49.798;9.928;2024-02-14T03:27:48;99996.34;;;5.44;83.56
19624;BME280;9959;49.798;9.928;2024-02-14T03:30:20;99995.84;;;5.32;84.86
19624;BME280;9959;49.798;9.928;2024-02-14T03:32:47;99989.84;;;5.30;85.45
19624;BME280;9959;49.798;9.928;2024-02-14T03:35:14;99985.16;;;5.24;86.04
19624;BME280;9959;49.798;9.928;2024-02-14T03:37:42;99992.38;;;5.16;86.69
19624;BME280;9959;49.798;9.928;2024-02-14T03:40:10;99999.72;;;5.14;85.94
19624;BME280;9959;49.798;9.928;2024-02-14T03:42:38;99990.22;;;5.11;87.67
19624;BME280;9959;49.798;9.928;2024-02-14T03:45:08;100010.22;;;5.23;86.78
19624;BME280;9959;49.798;9.928;2024-02-14T03:47:36;100002.22;;;5.15;86.57
19624;BME280;9959;49.798;9.928;2024-02-14T03:50:10;100003.19;;;5.22;86.91
19624;BME280;9959;49.798;9.928;2024-02-14T03:52:37;100003.03;;;5.32;85.80
19624;BME280;9959;49.798;9.928;2024-02-14T03:55:05;100010.22;;;5.23;85.63
19624;BME280;9959;49.798;9.928;2024-02-14T03:57:32;100015.38;;;5.33;85.29
19624;BME280;9959;49.798;9.928;2024-02-14T04:00:02;100009.22;;;5.32;84.64
19624;BME280;9959;49.798;9.928;2024-02-14T04:02:30;100011.03;;;5.32;84.96
19624;BME280;9959;49.798;9.928;2024-02-14T04:04:58;100013.38;;;5.35;84.54
19624;BME280;9959;49.798;9.928;2024-02-14T04:07:26;100014.56;;;5.32;83.79
19624;BME280;9959;49.798;9.928;2024-02-14T04:09:53;100018.72;;;5.35;84.27
19624;BME280;9959;49.798;9.928;2024-02-14T04:12:20;100021.72;;;5.24;84.87
19624;BME280;9959;49.798;9.928;2024-02-14T04:14:47;100027.56;;;5.35;84.58
19624;BME280;9959;49.798;9.928;2024-02-14T04:17:15;100028.06;;;5.31;84.79
19624;BME280;9959;49.798;9.928;2024-02-14T04:19:42;100028.75;;;5.41;83.95
19624;BME280;9959;49.798;9.928;2024-02-14T04:22:09;100032.06;;;5.43;84.18
19624;BME280;9959;49.798;9.928;2024-02-14T04:24:36;100032.56;;;5.47;83.30
19624;BME280;9959;49.798;9.928;2024-02-14T04:27:03;100037.09;;;5.38;83.91
19624;BME280;9959;49.798;9.928;2024-02-14T04:29:31;100038.72;;;5.47;83.05
19624;BME280;9959;49.798;9.928;2024-02-14T04:32:01;100041.09;;;5.42;83.14
19624;BME280;9959;49.798;9.928;2024-02-14T04:34:28;100033.22;;;5.49;83.62
19624;BME280;9959;49.798;9.928;2024-02-14T04:36:57;100031.38;;;5.49;83.55
19624;BME280;9959;49.798;9.928;2024-02-14T04:39:24;100028.38;;;5.60;82.86
19624;BME280;9959;49.798;9.928;2024-02-14T04:41:51;100031.53;;;5.56;83.13
19624;BME280;9959;49.798;9.928;2024-02-14T04:44:30;100037.06;;;5.54;82.82
19624;BME280;9959;49.798;9.928;2024-02-14T04:46:58;100035.72;;;5.58;82.67
19624;BME280;9959;49.798;9.928;2024-02-14T04:49:26;100028.03;;;5.63;82.62
19624;BME280;9959;49.798;9.928;2024-02-14T04:51:56;100032.38;;;5.56;82.56
19624;BME280;9959;49.798;9.928;2024-02-14T04:54:23;100026.34;;;5.62;82.66
19624;BME280;9959;49.798;9.928;2024-02-14T04:56:53;100019.84;;;5.49;83.00
19624;BME280;9959;49.798;9.928;2024-02-14T04:59:25;100026.50;;;5.69;82.27
19624;BME280;9959;49.798;9.928;2024-02-14T05:01:52;100021.66;;;5.64;82.32
19624;BME280;9959;49.798;9.928;2024-02-14T05:04:20;100018.50;;;5.61;82.69
19624;BME280;9959;49.798;9.928;2024-02-14T05:06:48;100027.84;;;5.73;82.29
19624;BME280;9959;49.798;9.928;2024-02-14T05:09:15;100024.84;;;5.60;82.90
19624;BME280;9959;49.798;9.928;2024-02-14T05:11:42;100020.94;;;5.78;82.44
19624;BME280;9959;49.798;9.928;2024-02-14T05:14:09;100013.97;;;5.69;82.03
19624;BME280;9959;49.798;9.928;2024-02-14T05:16:36;100016.81;;;5.68;82.15
19624;BME280;9959;49.798;9.928;2024-02-14T05:19:03;100019.50;;;5.68;82.18
19624;BME280;9959;49.798;9.928;2024-02-14T05:21:30;100020.63;;;5.82;81.50
19624;BME280;9959;49.798;9.928;2024-02-14T05:23:57;100021.28;;;5.84;81.45
19624;BME280;9959;49.798;9.928;2024-02-14T05:26:24;100020.63;;;5.82;81.24
19624;BME280;9959;49.798;9.928;2024-02-14T05:28:51;100015.31;;;5.65;82.75
19624;BME280;9959;49.798;9.928;2024-02-14T05:31:18;100021.66;;;5.72;82.38
19624;BME280;9959;49.798;9.928;2024-02-14T05:33:44;100021.44;;;5.82;82.01
19624;BME280;9959;49.798;9.928;2024-02-14T05:36:12;100010.97;;;5.72;82.60
19624;BME280;9959;49.798;9.928;2024-02-14T05:38:38;100010.09;;;5.80;82.23
19624;BME280;9959;49.798;9.928;2024-02-14T05:41:06;100018.25;;;5.87;82.09
19624;BME280;9959;49.798;9.928;2024-02-14T05:43:34;100021.72;;;6.03;80.62
19624;BME280;9959;49.798;9.928;2024-02-14T05:46:01;100021.44;;;5.98;81.49
19624;BME280;9959;49.798;9.928;2024-02-14T05:48:28;100022.97;;;5.93;81.41
19624;BME280;9959;49.798;9.928;2024-02-14T05:50:55;100018.94;;;5.97;81.59
19624;BME280;9959;49.798;9.928;2024-02-14T05:53:22;100016.22;;;6.05;81.55
19624;BME280;9959;49.798;9.928;2024-02-14T05:55:49;100014.28;;;5.91;82.30
19624;BME280;9959;49.798;9.928;2024-02-14T05:58:16;100009.19;;;6.04;82.28
19624;BME280;9959;49.798;9.928;2024-02-14T06:00:43;100018.94;;;5.97;82.23
19624;BME280;9959;49.798;9.928;2024-02-14T06:03:10;100010.34;;;6.09;81.79
19624;BME280;9959;49.798;9.928;2024-02-14T06:05:37;100014.25;;;5.99;82.14
19624;BME280;9959;49.798;9.928;2024-02-14T06:08:04;99998.16;;;6.07;82.33
19624;BME280;9959;49.798;9.928;2024-02-14T06:10:31;99994.13;;;6.11;81.91
19624;BME280;9959;49.798;9.928;2024-02-14T06:12:57;99999.38;;;5.96;83.32
19624;BME280;9959;49.798;9.928;2024-02-14T06:15:25;99993.63;;;6.07;82.56
19624;BME280;9959;49.798;9.928;2024-02-14T06:17:52;100001.47;;;6.09;82.16
19624;BME280;9959;49.798;9.928;2024-02-14T06:20:19;100003.16;;;6.10;82.07
19624;BME280;9959;49.798;9.928;2024-02-14T06:22:46;100001.28;;;6.19;81.23
19624;BME280;9959;49.798;9.928;2024-02-14T06:25:26;100000.44;;;6.18;81.03
19624;BME280;9959;49.798;9.928;2024-02-14T06:27:53;100002.47;;;6.16;81.50
19624;BME280;9959;49.798;9.928;2024-02-14T06:30:23;99997.75;;;6.26;81.90
19624;BME280;9959;49.798;9.928;2024-02-14T06:32:53;99997.00;;;6.32;82.25
19624;BME280;9959;49.798;9.928;2024-02-14T06:35:20;99991.66;;;6.32;81.86
19624;BME280;9959;49.798;9.928;2024-02-14T06:37:47;100005.34;;;6.37;80.58
19624;BME280;9959;49.798;9.928;2024-02-14T06:40:28;100004.31;;;6.47;81.15
19624;BME280;9959;49.798;9.928;2024-02-14T06:42:56;99994.78;;;6.67;80.25
19624;BME280;9959;49.798;9.928;2024-02-14T06:45:29;99997.13;;;6.70;78.67
19624;BME280;9959;49.798;9.928;2024-02-14T06:47:56;99992.63;;;6.85;78.50
19624;BME280;9959;49.798;9.928;2024-02-14T06:50:23;100003.47;;;6.92;77.66
19624;BME280;9959;49.798;9.928;2024-02-14T06:52:52;100015.16;;;6.99;77.17
19624;BME280;9959;49.798;9.928;2024-02-14T06:55:19;100009.59;;;7.00;76.75
19624;BME280;9959;49.798;9.928;2024-02-14T06:57:46;100012.63;;;7.20;76.11
19624;BME280;9959;49.798;9.928;2024-02-14T07:00:13;100009.75;;;7.22;75.98
19624;BME280;9959;49.798;9.928;2024-02-14T07:02:40;100007.56;;;7.40;75.43
19624;BME280;9959;49.798;9.928;2024-02-14T07:05:07;100008.56;;;7.39;74.90
19624;BME280;9959;49.798;9.928;2024-02-14T07:07:35;100014.22;;;7.44;74.46
19624;BME280;9959;49.798;9.928;2024-02-14T07:10:03;100009.53;;;7.46;74.89
19624;BME280;9959;49.798;9.928;2024-02-14T07:12:32;100014.44;;;7.57;73.89
19624;BME280;9959;49.798;9.928;2024-02-14T07:14:59;100017.84;;;7.51;75.08
19624;BME280;9959;49.798;9.928;2024-02-14T07:17:26;100026.25;;;7.48;74.99
19624;BME280;9959;49.798;9.928;2024-02-14T07:19:53;100026.47;;;7.61;74.33
19624;BME280;9959;49.798;9.928;2024-02-14T07:22:20;100030.81;;;7.77;73.41
19624;BME280;9959;49.798;9.928;2024-02-14T07:24:47;100034.25;;;7.86;72.59
19624;BME280;9959;49.798;9.928;2024-02-14T07:27:14;100023.50;;;7.56;74.35
19624;BME280;9959;49.798;9.928;2024-02-14T07:29:42;100041.06;;;7.73;73.31
19624;BME280;9959;49.798;9.928;2024-02-14T07:32:09;100039.34;;;7.80;73.12
19624;BME280;9959;49.798;9.928;2024-02-14T07:34:38;100042.94;;;7.88;72.73
19624;BME280;9959;49.798;9.928;2024-02-14T07:37:08;100041.28;;;7.87;73.32
19624;BME280;9959;49.798;9.928;2024-02-14T07:39:35;100049.88;;;7.82;73.09
19624;BME280;9959;49.798;9.928;2024-02-14T07:42:02;100045.34;;;7.82;73.00
19624;BME280;9959;49.798;9.928;2024-02-14T07:44:30;100040.16;;;7.81;73.52
19624;BME280;9959;49.798;9.928;2024-02-14T07:46:57;100044.97;;;7.86;73.04
19624;BME280;9959;49.798;9.928;2024-02-14T07:49:29;100043.97;;;8.01;72.71
19624;BME280;9959;49.798;9.928;2024-02-14T07:51:56;100053.03;;;8.00;73.43
19624;BME280;9959;49.798;9.928;2024-02-14T07:54:23;100056.81;;;8.06;72.69
19624;BME280;9959;49.798;9.928;2024-02-14T07:56:50;100059.31;;;8.07;73.12
19624;BME280;9959;49.798;9.928;2024-02-14T07:59:17;100056.25;;;7.96;74.05
19624;BME280;9959;49.798;9.928;2024-02-14T08:01:44;100057.75;;;7.84;74.80
19624;BME280;9959;49.798;9.928;2024-02-14T08:04:11;100059.59;;;7.98;74.38
19624;BME280;9959;49.798;9.928;2024-02-14T08:06:38;100070.88;;;8.08;74.70
19624;BME280;9959;49.798;9.928;2024-02-14T08:09:05;100065.16;;;8.11;74.38
19624;BME280;9959;49.798;9.928;2024-02-14T08:11:36;100074.31;;;8.02;74.71
19624;BME280;9959;49.798;9.928;2024-02-14T08:14:03;100068.28;;;8.14;74.24
19624;BME280;9959;49.798;9.928;2024-02-14T08:16:31;100067.09;;;8.46;73.91
19624;BME280;9959;49.798;9.928;2024-02-14T08:18:59;100064.38;;;8.32;73.91
19624;BME280;9959;49.798;9.928;2024-02-14T08:21:27;100069.41;;;8.35;74.07
19624;BME280;9959;49.798;9.928;2024-02-14T08:23:57;100064.66;;;8.52;72.95
19624;BME280;9959;49.798;9.928;2024-02-14T08:26:27;100065.03;;;8.48;73.43
19624;BME280;9959;49.798;9.928;2024-02-14T08:28:55;100058.81;;;8.48;73.80
19624;BME280;9959;49.798;9.928;2024-02-14T08:31:22;100056.97;;;8.48;74.33
19624;BME280;9959;49.798;9.928;2024-02-14T08:33:49;100065.13;;;8.55;74.09
19624;BME280;9959;49.798;9.928;2024-02-14T08:36:16;100064.41;;;8.46;73.97
19624;BME280;9959;49.798;9.928;2024-02-14T08:38:46;100064.22;;;8.33;74.53
19624;BME280;9959;49.798;9.928;2024-02-14T08:41:13;100054.78;;;8.37;74.68
19624;BME280;9959;49.798;9.928;2024-02-14T08:43:45;100061.91;;;8.45;74.58
19624;BME280;9959;49.798;9.928;2024-02-14T08:46:14;100060.44;;;8.42;74.98
19624;BME280;9959;49.798;9.928;2024-02-14T08:48:42;100058.63;;;8.49;74.98
19624;BME280;9959;49.798;9.928;2024-02-14T08:51:15;100062.41;;;8.70;74.02
19624;BME280;9959;49.798;9.928;2024-02-14T08:53:44;100057.06;;;8.91;73.35
19624;BME280;9959;49.798;9.928;2024-02-14T08:56:12;100047.13;;;8.92;73.74
19624;BME280;9959;49.798;9.928;2024-02-14T08:58:41;100049.19;;;9.11;72.65
19624;BME280;9959;49.798;9.928;2024-02-14T09:01:08;100048.75;;;9.29;72.23
19624;BME280;9959;49.798;9.928;2024-02-14T09:03:44;100056.34;;;9.74;71.19
19624;BME280;9959;49.798;9.928;2024-02-14T09:06:16;100056.22;;;9.89;70.44
19624;BME280;9959;49.798;9.928;2024-02-14T09:08:48;100062.47;;;9.96;70.14
19624;BME280;9959;49.798;9.928;2024-02-14T09:11:17;100071.63;;;10.02;70.34
19624;BME280;9959;49.798;9.928;2024-02-14T09:13:44;100056.47;;;9.66;71.94
19624;BME280;9959;49.798;9.928;2024-02-14T09:16:14;100076.88;;;9.33;73.68
19624;BME280;9959;49.798;9.928;2024-02-14T09:18:42;100068.19;;;9.59;73.62
19624;BME280;9959;49.798;9.928;2024-02-14T09:21:09;100079.34;;;9.28;75.20
19624;BME280;9959;49.798;9.928;2024-02-14T09:23:36;100074.72;;;9.22;75.71
19624;BME280;9959;49.798;9.928;2024-02-14T09:26:07;100069.72;;;9.19;76.00
19624;BME280;9959;49.798;9.928;2024-02-14T09:28:33;100069.84;;;9.32;76.44
19624;BME280;9959;49.798;9.928;2024-02-14T09:31:01;100067.91;;;9.47;75.49
19624;BME280;9959;49.798;9.928;2024-02-14T09:33:30;100073.56;;;9.31;75.93
19624;BME280;9959;49.798;9.928;2024-02-14T09:35:58;100075.00;;;9.27;76.68
19624;BME280;9959;49.798;9.928;2024-02-14T09:38:25;100067.56;;;9.29;76.75
19624;BME280;9959;49.798;9.928;2024-02-14T09:40:53;100073.38;;;9.60;75.88
19624;BME280;9959;49.798;9.928;2024-02-14T09:43:38;100069.28;;;9.64;75.66
19624;BME280;9959;49.798;9.928;2024-02-14T09:46:07;100068.50;;;9.70;75.90
19624;BME280;9959;49.798;9.928;2024-02-14T09:48:36;100073.44;;;9.67;75.62
19624;BME280;9959;49.798;9.928;2024-02-14T09:51:05;100071.69;;;9.53;76.35
19624;BME280;9959;49.798;9.928;2024-02-14T09:53:34;100079.75;;;9.53;76.39
19624;BME280;9959;49.798;9.928;2024-02-14T09:56:05;100077.53;;;9.56;76.85
19624;BME280;9959;49.798;9.928;2024-02-14T09:58:32;100076.13;;;9.67;76.55
19624;BME280;9959;49.798;9.928;2024-02-14T10:00:59;100077.28;;;9.85;76.29
19624;BME280;9959;49.798;9.928;2024-02-14T10:03:26;100077.09;;;9.59;77.40
19624;BME280;9959;49.798;9.928;2024-02-14T10:05:53;100081.56;;;9.73;77.74
19624;BME280;9959;49.798;9.928;2024-02-14T10:08:22;100079.28;;;9.70;78.08
19624;BME280;9959;49.798;9.928;2024-02-14T10:10:49;100080.53;;;9.74;77.81
19624;BME280;9959;49.798;9.928;2024-02-14T10:13:19;100083.63;;;9.71;78.70
19624;BME280;9959;49.798;9.928;2024-02-14T10:15:46;100087.84;;;9.59;79.22
19624;BME280;9959;49.798;9.928;2024-02-14T10:18:14;100085.81;;;9.61;79.40
19624;BME280;9959;49.798;9.928;2024-02-14T10:20:41;100089.13;;;9.63;79.82
19624;BME280;9959;49.798;9.928;2024-02-14T10:23:11;100090.34;;;10.16;78.39
19624;BME280;9959;49.798;9.928;2024-02-14T10:25:39;100084.53;;;10.47;76.27
19624;BME280;9959;49.798;9.928;2024-02-14T10:28:06;100083.53;;;10.55;75.97
19624;BME280;9959;49.798;9.928;2024-02-14T10:30:36;100081.09;;;10.73;75.03
19624;BME280;9959;49.798;9.928;2024-02-14T10:33:05;100070.97;;;10.82;76.04
19624;BME280;9959;49.798;9.928;2024-02-14T10:35:50;100069.38;;;11.07;74.54
19624;BME280;9959;49.798;9.928;2024-02-14T10:38:20;100083.66;;;10.95;75.18
19624;BME280;9959;49.798;9.928;2024-02-14T10:40:49;100084.84;;;10.79;75.77
19624;BME280;9959;49.798;9.928;2024-02-14T10:43:17;100082.34;;;10.71;76.11
19624;BME280;9959;49.798;9.928;2024-02-14T10:45:45;100094.84;;;10.37;77.76
19624;BME280;9959;49.798;9.928;2024-02-14T10:48:12;100107.06;;;10.40;78.03
19624;BME280;9959;49.798;9.928;2024-02-14T10:50:43;100098.09;;;10.26;78.74
19624;BME280;9959;49.798;9.928;2024-02-14T10:53:14;100093.97;;;10.30;78.84
19624;BME280;9959;49.798;9.928;2024-02-14T10:55:49;100092.16;;;10.44;78.81
19624;BME280;9959;49.798;9.928;2024-02-14T10:58:16;100088.94;;;10.62;77.77
19624;BME280;9959;49.798;9.928;2024-02-14T11:00:46;100086.34;;;10.40;78.59
19624;BME280;9959;49.798;9.928;2024-02-14T11:03:14;100080.81;;;10.48;79.06
19624;BME280;9959;49.798;9.928;2024-02-14T11:05:46;100080.63;;;10.57;78.65
19624;BME280;9959;49.798;9.928;2024-02-14T11:08:14;100085.25;;;10.76;78.58
19624;BME280;9959;49.798;9.928;2024-02-14T11:10:42;100087.53;;;10.66;78.63
19624;BME280;9959;49.798;9.928;2024-02-14T11:13:15;100074.47;;;10.76;78.74
19624;BME280;9959;49.798;9.928;2024-02-14T11:15:44;100082.22;;;11.05;78.07
19624;BME280;9959;49.798;9.928;2024-02-14T11:18:13;100074.56;;;11.22;77.28
19624;BME280;9959;49.798;9.928;2024-02-14T11:20:40;100088.31;;;11.47;76.63
19624;BME280;9959;49.798;9.928;2024-02-14T11:23:09;100085.81;;;11.32;77.28
19624;BME280;9959;49.798;9.928;2024-02-14T11:25:38;100096.13;;;11.02;78.79
19624;BME280;9959;49.798;9.928;2024-02-14T11:28:18;100091.34;;;11.04;79.31
19624;BME280;9959;49.798;9.928;2024-02-14T11:30:48;100101.47;;;10.82;80.60
19624;BME280;9959;49.798;9.928;2024-02-14T11:33:19;100098.59;;;10.97;81.09
19624;BME280;9959;49.798;9.928;2024-02-14T11:35:49;100100.16;;;10.72;82.07
19624;BME280;9959;49.798;9.928;2024-02-14T11:38:23;100099.81;;;10.95;81.31
19624;BME280;9959;49.798;9.928;2024-02-14T11:40:56;100093.69;;;11.34;80.18
19624;BME280;9959;49.798;9.928;2024-02-14T11:43:25;100082.94;;;11.47;79.50
19624;BME280;9959;49.798;9.928;2024-02-14T11:45:53;100090.56;;;11.50;79.71
19624;BME280;9959;49.798;9.928;2024-02-14T11:48:21;100084.34;;;11.30;80.41
19624;BME280;9959;49.798;9.928;2024-02-14T11:50:52;100103.63;;;11.13;82.21
19624;BME280;9959;49.798;9.928;2024-02-14T11:53:19;100102.31;;;10.96;83.17
19624;BME280;9959;49.798;9.928;2024-02-14T11:55:46;100100.78;;;10.74;85.27
19624;BME280;9959;49.798;9.928;2024-02-14T11:58:15;100105.00;;;10.90;85.11
19624;BME280;9959;49.798;9.928;2024-02-14T12:00:44;100102.66;;;10.73;85.74
19624;BME280;9959;49.798;9.928;2024-02-14T12:03:23;100102.13;;;10.91;86.97
19624;BME280;9959;49.798;9.928;2024-02-14T12:05:51;100104.38;;;10.94;86.38
19624;BME280;9959;49.798;9.928;2024-02-14T12:08:19;100097.41;;;11.33;85.58
19624;BME280;9959;49.798;9.928;2024-02-14T12:10:47;100100.53;;;10.56;89.97
19624;BME280;9959;49.798;9.928;2024-02-14T12:13:21;100106.78;;;10.63;90.15
19624;BME280;9959;49.798;9.928;2024-02-14T12:15:49;100100.44;;;10.42;92.89
19624;BME280;9959;49.798;9.928;2024-02-14T12:18:20;100102.16;;;9.88;99.38
19624;BME280;9959;49.798;9.928;2024-02-14T12:20:47;100109.56;;;10.41;95.54
19624;BME280;9959;49.798;9.928;2024-02-14T12:23:22;100111.22;;;10.36;96.13
19624;BME280;9959;49.798;9.928;2024-02-14T12:25:50;100092.91;;;10.25;97.50
19624;BME280;9959;49.798;9.928;2024-02-14T12:28:18;100100.25;;;10.37;100.00
19624;BME280;9959;49.798;9.928;2024-02-14T12:30:49;100108.31;;;10.37;98.75
19624;BME280;9959;49.798;9.928;2024-02-14T12:33:18;100112.97;;;10.22;100.00
19624;BME280;9959;49.798;9.928;2024-02-14T12:35:47;100108.56;;;10.49;98.37
19624;BME280;9959;49.798;9.928;2024-02-14T12:38:19;100103.06;;;10.70;95.25
19624;BME280;9959;49.798;9.928;2024-02-14T12:40:47;100103.22;;;10.56;97.21
19624;BME280;9959;49.798;9.928;2024-02-14T12:43:15;100096.16;;;11.22;95.23
19624;BME280;9959;49.798;9.928;2024-02-14T12:45:43;100090.38;;;11.32;91.38
19624;BME280;9959;49.798;9.928;2024-02-14T12:48:11;100094.94;;;11.31;89.53
19624;BME280;9959;49.798;9.928;2024-02-14T12:50:42;100106.41;;;10.79;93.28
19624;BME280;9959;49.798;9.928;2024-02-14T12:53:15;100112.16;;;10.69;92.78
19624;BME280;9959;49.798;9.928;2024-02-14T12:55:42;100111.41;;;10.82;92.79
19624;BME280;9959;49.798;9.928;2024-02-14T12:58:09;100101.91;;;10.93;90.96
19624;BME280;9959;49.798;9.928;2024-02-14T13:00:36;100106.41;;;10.79;90.55
19624;BME280;9959;49.798;9.928;2024-02-14T13:03:04;100099.81;;;10.95;90.71
19624;BME280;9959;49.798;9.928;2024-02-14T13:05:32;100103.78;;;10.44;92.33
19624;BME280;9959;49.798;9.928;2024-02-14T13:07:59;100096.28;;;10.81;91.10
19624;BME280;9959;49.798;9.928;2024-02-14T13:10:25;100091.72;;;10.40;94.15
19624;BME280;9959;49.798;9.928;2024-02-14T13:12:53;100096.84;;;10.70;91.77